KPLN

Pellston Regional of Emmet County Airport

Pellston, Michigan, USA
METAR KPLN 171958Z AUTO 29008G20KT 4SM -SN BR BKN032 BKN040 OVC065 02/00 A3016 RMK AO2 P0000 T00220000
Observed Flight Rules
Oct-17 @ 19:58 UTC (30 minutes ago) Marginal Visual Flight Rules
Wind Visibility Clouds Conditions
290° at 8 knots
 Gusting to 20 knots
4 miles
  • Broken at 3,200' AGL
  • Broken at 4,000' AGL
  • Overcast at 6,500' AGL
  • Light Snow
  • Mist
Temperatures Readings Precipitation
Current 2°C / 36°F
Dewpoint 0°C / 32°F
Humidity 87%
Altimeter 30.16" Hg
Pressure 1021 hPa
Elevation 217
Current Rain 0.005
METAR KPLN 171958Z AUTO 29008G20KT 4SM -SN BR BKN032 BKN040 OVC065 02/00 A3016 RMK AO2 P0000 T00220000
Observed Flight Rules
Oct-17 @ 19:58 UTC
(30 minutes ago)
MVFR
Wind Visibility
290° at 8 knots
 Gusting to 20 knots
4 miles
Clouds
  • Broken at 3,200' AGL
  • Broken at 4,000' AGL
  • Overcast at 6,500' AGL
Conditions
  • Light Snow
  • Mist
Temperature Dewpoint
2°C / 36°F 0°C / 32°F
Humidity Altimeter Pressure
87% 30.16" Hg 1021 hPa
Current Rain
0.005